sensor_id;sensor_type;location;lat;lon;timestamp;P1;durP1;ratioP1;P2;durP2;ratioP2
9322;SDS011;4700;48.822;9.270;2023-05-07T00:02:37;251.60;;;236.13;;
9322;SDS011;4700;48.822;9.270;2023-05-07T00:05:23;229.23;;;212.63;;
9322;SDS011;4700;48.822;9.270;2023-05-07T00:08:08;235.80;;;219.63;;
9322;SDS011;4700;48.822;9.270;2023-05-07T00:10:54;236.27;;;220.27;;
9322;SDS011;4700;48.822;9.270;2023-05-07T00:13:41;235.77;;;219.47;;
9322;SDS011;4700;48.822;9.270;2023-05-07T00:16:27;229.70;;;213.73;;
9322;SDS011;4700;48.822;9.270;2023-05-07T00:19:12;219.93;;;204.53;;
9322;SDS011;4700;48.822;9.270;2023-05-07T00:21:58;243.93;;;227.30;;
9322;SDS011;4700;48.822;9.270;2023-05-07T00:24:44;202.53;;;187.13;;
9322;SDS011;4700;48.822;9.270;2023-05-07T00:27:29;221.20;;;205.20;;
9322;SDS011;4700;48.822;9.270;2023-05-07T00:30:16;241.63;;;225.03;;
9322;SDS011;4700;48.822;9.270;2023-05-07T00:33:02;248.93;;;233.60;;
9322;SDS011;4700;48.822;9.270;2023-05-07T00:35:44;170.60;;;153.63;;
9322;SDS011;4700;48.822;9.270;2023-05-07T00:38:30;165.50;;;148.73;;
9322;SDS011;4700;48.822;9.270;2023-05-07T00:41:16;162.47;;;144.83;;
9322;SDS011;4700;48.822;9.270;2023-05-07T00:44:02;166.23;;;147.10;;
9322;SDS011;4700;48.822;9.270;2023-05-07T00:46:48;164.80;;;143.23;;
9322;SDS011;4700;48.822;9.270;2023-05-07T00:49:36;162.20;;;138.83;;
9322;SDS011;4700;48.822;9.270;2023-05-07T00:52:26;160.93;;;133.23;;
9322;SDS011;4700;48.822;9.270;2023-05-07T00:55:13;157.80;;;133.80;;
9322;SDS011;4700;48.822;9.270;2023-05-07T00:57:59;162.17;;;138.40;;
9322;SDS011;4700;48.822;9.270;2023-05-07T01:00:45;161.37;;;141.63;;
9322;SDS011;4700;48.822;9.270;2023-05-07T01:03:31;167.50;;;147.23;;
9322;SDS011;4700;48.822;9.270;2023-05-07T01:06:16;159.00;;;138.10;;
9322;SDS011;4700;48.822;9.270;2023-05-07T01:09:05;158.07;;;137.93;;
9322;SDS011;4700;48.822;9.270;2023-05-07T01:11:52;162.83;;;133.97;;
9322;SDS011;4700;48.822;9.270;2023-05-07T01:14:41;159.67;;;135.23;;
9322;SDS011;4700;48.822;9.270;2023-05-07T01:17:27;159.00;;;135.80;;
9322;SDS011;4700;48.822;9.270;2023-05-07T01:20:12;165.90;;;145.47;;
9322;SDS011;4700;48.822;9.270;2023-05-07T01:23:01;159.73;;;138.87;;
9322;SDS011;4700;48.822;9.270;2023-05-07T01:25:51;153.03;;;133.43;;
9322;SDS011;4700;48.822;9.270;2023-05-07T01:28:37;166.03;;;140.30;;
9322;SDS011;4700;48.822;9.270;2023-05-07T01:31:23;164.90;;;144.47;;
9322;SDS011;4700;48.822;9.270;2023-05-07T01:34:09;158.07;;;135.70;;
9322;SDS011;4700;48.822;9.270;2023-05-07T01:36:57;157.53;;;134.87;;
9322;SDS011;4700;48.822;9.270;2023-05-07T01:39:46;163.33;;;137.33;;
9322;SDS011;4700;48.822;9.270;2023-05-07T01:42:32;159.10;;;130.03;;
9322;SDS011;4700;48.822;9.270;2023-05-07T01:45:18;167.20;;;137.67;;
9322;SDS011;4700;48.822;9.270;2023-05-07T01:48:05;168.07;;;145.30;;
9322;SDS011;4700;48.822;9.270;2023-05-07T01:50:51;164.80;;;139.23;;
9322;SDS011;4700;48.822;9.270;2023-05-07T01:53:38;160.07;;;133.07;;
9322;SDS011;4700;48.822;9.270;2023-05-07T01:56:25;154.67;;;126.83;;
9322;SDS011;4700;48.822;9.270;2023-05-07T01:59:11;166.03;;;133.70;;
9322;SDS011;4700;48.822;9.270;2023-05-07T02:01:58;165.97;;;131.77;;
9322;SDS011;4700;48.822;9.270;2023-05-07T02:04:44;171.13;;;142.17;;
9322;SDS011;4700;48.822;9.270;2023-05-07T02:07:30;167.27;;;131.00;;
9322;SDS011;4700;48.822;9.270;2023-05-07T02:10:15;160.17;;;128.00;;
9322;SDS011;4700;48.822;9.270;2023-05-07T02:13:03;166.17;;;129.80;;
9322;SDS011;4700;48.822;9.270;2023-05-07T02:15:48;173.40;;;137.70;;
9322;SDS011;4700;48.822;9.270;2023-05-07T02:18:34;173.70;;;137.37;;
9322;SDS011;4700;48.822;9.270;2023-05-07T02:21:20;168.83;;;131.57;;
9322;SDS011;4700;48.822;9.270;2023-05-07T02:24:06;162.97;;;126.73;;
9322;SDS011;4700;48.822;9.270;2023-05-07T02:26:52;164.07;;;130.87;;
9322;SDS011;4700;48.822;9.270;2023-05-07T02:29:39;174.60;;;134.03;;
9322;SDS011;4700;48.822;9.270;2023-05-07T02:32:25;163.13;;;122.97;;
9322;SDS011;4700;48.822;9.270;2023-05-07T02:35:10;170.33;;;128.53;;
9322;SDS011;4700;48.822;9.270;2023-05-07T02:37:56;171.17;;;124.87;;
9322;SDS011;4700;48.822;9.270;2023-05-07T02:40:42;167.90;;;125.83;;
9322;SDS011;4700;48.822;9.270;2023-05-07T02:43:28;167.83;;;128.33;;
9322;SDS011;4700;48.822;9.270;2023-05-07T02:46:15;167.97;;;134.90;;
9322;SDS011;4700;48.822;9.270;2023-05-07T02:49:01;178.63;;;156.07;;
9322;SDS011;4700;48.822;9.270;2023-05-07T02:51:47;171.83;;;140.87;;
9322;SDS011;4700;48.822;9.270;2023-05-07T02:54:33;166.47;;;136.67;;
9322;SDS011;4700;48.822;9.270;2023-05-07T02:57:18;173.20;;;143.07;;
9322;SDS011;4700;48.822;9.270;2023-05-07T03:00:11;168.50;;;129.30;;
9322;SDS011;4700;48.822;9.270;2023-05-07T03:02:59;172.73;;;126.30;;
9322;SDS011;4700;48.822;9.270;2023-05-07T03:05:45;168.90;;;127.50;;
9322;SDS011;4700;48.822;9.270;2023-05-07T03:08:31;170.20;;;127.57;;
9322;SDS011;4700;48.822;9.270;2023-05-07T03:11:17;181.43;;;133.87;;
9322;SDS011;4700;48.822;9.270;2023-05-07T03:14:03;170.73;;;125.53;;
9322;SDS011;4700;48.822;9.270;2023-05-07T03:16:49;176.27;;;140.50;;
9322;SDS011;4700;48.822;9.270;2023-05-07T03:19:36;169.93;;;140.30;;
9322;SDS011;4700;48.822;9.270;2023-05-07T03:22:22;170.47;;;142.67;;
9322;SDS011;4700;48.822;9.270;2023-05-07T03:25:08;166.70;;;133.77;;
9322;SDS011;4700;48.822;9.270;2023-05-07T03:27:55;177.37;;;140.93;;
9322;SDS011;4700;48.822;9.270;2023-05-07T03:30:41;173.40;;;143.97;;
9322;SDS011;4700;48.822;9.270;2023-05-07T03:33:27;175.43;;;140.67;;
9322;SDS011;4700;48.822;9.270;2023-05-07T03:36:11;171.40;;;140.90;;
9322;SDS011;4700;48.822;9.270;2023-05-07T03:38:57;163.80;;;125.30;;
9322;SDS011;4700;48.822;9.270;2023-05-07T03:41:43;172.87;;;137.37;;
9322;SDS011;4700;48.822;9.270;2023-05-07T03:44:29;173.17;;;140.67;;
9322;SDS011;4700;48.822;9.270;2023-05-07T03:47:17;171.50;;;132.47;;
9322;SDS011;4700;48.822;9.270;2023-05-07T03:50:03;167.90;;;130.60;;
9322;SDS011;4700;48.822;9.270;2023-05-07T03:52:50;175.03;;;133.50;;
9322;SDS011;4700;48.822;9.270;2023-05-07T03:55:36;176.10;;;138.53;;
9322;SDS011;4700;48.822;9.270;2023-05-07T03:58:27;179.93;;;133.13;;
9322;SDS011;4700;48.822;9.270;2023-05-07T04:01:13;167.93;;;123.63;;
9322;SDS011;4700;48.822;9.270;2023-05-07T04:03:59;168.73;;;128.07;;
9322;SDS011;4700;48.822;9.270;2023-05-07T04:06:45;171.87;;;128.70;;
9322;SDS011;4700;48.822;9.270;2023-05-07T04:09:32;170.23;;;122.90;;
9322;SDS011;4700;48.822;9.270;2023-05-07T04:12:17;173.03;;;128.50;;
9322;SDS011;4700;48.822;9.270;2023-05-07T04:15:03;183.90;;;139.40;;
9322;SDS011;4700;48.822;9.270;2023-05-07T04:17:49;172.67;;;122.37;;
9322;SDS011;4700;48.822;9.270;2023-05-07T04:20:35;183.77;;;136.30;;
9322;SDS011;4700;48.822;9.270;2023-05-07T04:23:21;183.87;;;130.20;;
9322;SDS011;4700;48.822;9.270;2023-05-07T04:26:08;173.57;;;122.73;;
9322;SDS011;4700;48.822;9.270;2023-05-07T04:28:54;174.17;;;127.10;;
9322;SDS011;4700;48.822;9.270;2023-05-07T04:31:41;175.37;;;126.90;;
9322;SDS011;4700;48.822;9.270;2023-05-07T04:34:28;216.20;;;158.80;;
9322;SDS011;4700;48.822;9.270;2023-05-07T04:37:14;182.10;;;134.60;;
9322;SDS011;4700;48.822;9.270;2023-05-07T04:40:00;178.80;;;131.77;;
9322;SDS011;4700;48.822;9.270;2023-05-07T04:42:48;176.07;;;126.87;;
9322;SDS011;4700;48.822;9.270;2023-05-07T04:45:33;182.20;;;137.10;;
9322;SDS011;4700;48.822;9.270;2023-05-07T04:48:19;173.03;;;130.60;;
9322;SDS011;4700;48.822;9.270;2023-05-07T04:51:04;174.00;;;133.23;;
9322;SDS011;4700;48.822;9.270;2023-05-07T04:53:50;168.70;;;131.20;;
9322;SDS011;4700;48.822;9.270;2023-05-07T04:56:37;167.10;;;138.33;;
9322;SDS011;4700;48.822;9.270;2023-05-07T04:59:24;167.87;;;139.97;;
9322;SDS011;4700;48.822;9.270;2023-05-07T05:02:10;168.40;;;139.73;;
9322;SDS011;4700;48.822;9.270;2023-05-07T05:04:56;178.17;;;157.50;;
9322;SDS011;4700;48.822;9.270;2023-05-07T05:07:43;164.63;;;143.43;;
9322;SDS011;4700;48.822;9.270;2023-05-07T05:10:28;163.70;;;143.37;;
9322;SDS011;4700;48.822;9.270;2023-05-07T05:13:14;161.87;;;139.07;;
9322;SDS011;4700;48.822;9.270;2023-05-07T05:16:01;154.07;;;133.33;;
9322;SDS011;4700;48.822;9.270;2023-05-07T05:18:46;160.27;;;142.13;;
9322;SDS011;4700;48.822;9.270;2023-05-07T05:21:32;154.20;;;134.77;;
9322;SDS011;4700;48.822;9.270;2023-05-07T05:24:18;159.90;;;140.03;;
9322;SDS011;4700;48.822;9.270;2023-05-07T05:27:03;158.07;;;138.33;;
9322;SDS011;4700;48.822;9.270;2023-05-07T05:29:49;157.70;;;136.77;;
9322;SDS011;4700;48.822;9.270;2023-05-07T05:32:36;153.23;;;136.20;;
9322;SDS011;4700;48.822;9.270;2023-05-07T05:35:22;158.57;;;141.83;;
9322;SDS011;4700;48.822;9.270;2023-05-07T05:38:07;146.30;;;129.87;;
9322;SDS011;4700;48.822;9.270;2023-05-07T05:40:53;159.80;;;140.87;;
9322;SDS011;4700;48.822;9.270;2023-05-07T05:43:39;163.13;;;145.53;;
9322;SDS011;4700;48.822;9.270;2023-05-07T05:46:24;168.53;;;150.83;;
9322;SDS011;4700;48.822;9.270;2023-05-07T05:49:11;173.43;;;155.83;;
9322;SDS011;4700;48.822;9.270;2023-05-07T05:51:57;168.77;;;151.27;;
9322;SDS011;4700;48.822;9.270;2023-05-07T05:54:43;164.07;;;147.07;;
9322;SDS011;4700;48.822;9.270;2023-05-07T05:57:29;168.40;;;151.30;;
9322;SDS011;4700;48.822;9.270;2023-05-07T06:00:15;177.40;;;160.60;;
9322;SDS011;4700;48.822;9.270;2023-05-07T06:03:00;178.97;;;162.73;;
9322;SDS011;4700;48.822;9.270;2023-05-07T06:05:47;175.57;;;158.97;;
9322;SDS011;4700;48.822;9.270;2023-05-07T06:08:33;178.20;;;161.73;;
9322;SDS011;4700;48.822;9.270;2023-05-07T06:11:18;180.70;;;164.97;;
9322;SDS011;4700;48.822;9.270;2023-05-07T06:14:04;191.03;;;174.03;;
9322;SDS011;4700;48.822;9.270;2023-05-07T06:16:50;188.60;;;172.17;;
9322;SDS011;4700;48.822;9.270;2023-05-07T06:19:36;207.33;;;188.90;;
9322;SDS011;4700;48.822;9.270;2023-05-07T06:22:23;229.00;;;213.03;;
9322;SDS011;4700;48.822;9.270;2023-05-07T06:25:09;191.33;;;177.90;;
9322;SDS011;4700;48.822;9.270;2023-05-07T06:27:54;141.30;;;133.73;;
9322;SDS011;4700;48.822;9.270;2023-05-07T06:30:40;101.80;;;96.73;;
9322;SDS011;4700;48.822;9.270;2023-05-07T06:33:26;94.83;;;90.17;;
9322;SDS011;4700;48.822;9.270;2023-05-07T06:36:11;88.87;;;84.60;;
9322;SDS011;4700;48.822;9.270;2023-05-07T06:38:59;74.87;;;70.83;;
9322;SDS011;4700;48.822;9.270;2023-05-07T06:41:44;67.30;;;64.27;;
9322;SDS011;4700;48.822;9.270;2023-05-07T06:44:30;78.87;;;75.03;;
9322;SDS011;4700;48.822;9.270;2023-05-07T06:47:16;77.57;;;73.97;;
9322;SDS011;4700;48.822;9.270;2023-05-07T06:50:01;91.03;;;86.83;;
9322;SDS011;4700;48.822;9.270;2023-05-07T06:52:47;107.57;;;102.57;;
9322;SDS011;4700;48.822;9.270;2023-05-07T06:55:34;113.10;;;107.47;;
9322;SDS011;4700;48.822;9.270;2023-05-07T06:58:22;112.00;;;106.63;;
9322;SDS011;4700;48.822;9.270;2023-05-07T07:01:07;98.57;;;93.80;;
9322;SDS011;4700;48.822;9.270;2023-05-07T07:03:53;86.73;;;83.07;;
9322;SDS011;4700;48.822;9.270;2023-05-07T07:06:38;63.77;;;60.90;;
9322;SDS011;4700;48.822;9.270;2023-05-07T07:09:24;42.80;;;41.07;;
9322;SDS011;4700;48.822;9.270;2023-05-07T07:12:11;45.53;;;43.30;;
9322;SDS011;4700;48.822;9.270;2023-05-07T07:14:57;30.70;;;29.40;;
9322;SDS011;4700;48.822;9.270;2023-05-07T07:17:42;41.53;;;39.17;;
9322;SDS011;4700;48.822;9.270;2023-05-07T07:20:28;29.53;;;28.23;;
9322;SDS011;4700;48.822;9.270;2023-05-07T07:23:14;22.67;;;21.53;;
9322;SDS011;4700;48.822;9.270;2023-05-07T07:25:59;22.80;;;21.63;;
9322;SDS011;4700;48.822;9.270;2023-05-07T07:28:47;27.63;;;26.47;;
9322;SDS011;4700;48.822;9.270;2023-05-07T07:31:32;28.30;;;27.07;;
9322;SDS011;4700;48.822;9.270;2023-05-07T07:34:18;26.13;;;24.83;;
9322;SDS011;4700;48.822;9.270;2023-05-07T07:37:04;29.97;;;28.53;;
9322;SDS011;4700;48.822;9.270;2023-05-07T07:39:50;21.73;;;20.73;;
9322;SDS011;4700;48.822;9.270;2023-05-07T07:42:35;30.70;;;29.20;;
9322;SDS011;4700;48.822;9.270;2023-05-07T07:45:22;28.60;;;27.13;;
9322;SDS011;4700;48.822;9.270;2023-05-07T07:48:08;31.43;;;29.87;;
9322;SDS011;4700;48.822;9.270;2023-05-07T07:50:54;30.40;;;29.00;;
9322;SDS011;4700;48.822;9.270;2023-05-07T07:53:39;23.90;;;22.70;;
9322;SDS011;4700;48.822;9.270;2023-05-07T07:56:27;26.70;;;25.43;;
9322;SDS011;4700;48.822;9.270;2023-05-07T07:59:13;34.97;;;33.43;;
9322;SDS011;4700;48.822;9.270;2023-05-07T08:02:04;34.83;;;33.27;;
9322;SDS011;4700;48.822;9.270;2023-05-07T08:04:49;32.20;;;30.53;;
9322;SDS011;4700;48.822;9.270;2023-05-07T08:07:35;34.07;;;32.23;;
9322;SDS011;4700;48.822;9.270;2023-05-07T08:10:21;46.63;;;44.37;;
9322;SDS011;4700;48.822;9.270;2023-05-07T08:13:07;73.00;;;68.67;;
9322;SDS011;4700;48.822;9.270;2023-05-07T08:15:53;66.40;;;63.50;;
9322;SDS011;4700;48.822;9.270;2023-05-07T08:18:39;83.73;;;80.20;;
9322;SDS011;4700;48.822;9.270;2023-05-07T08:21:25;67.07;;;64.23;;
9322;SDS011;4700;48.822;9.270;2023-05-07T08:24:11;70.40;;;67.30;;
9322;SDS011;4700;48.822;9.270;2023-05-07T08:26:56;72.47;;;69.23;;
9322;SDS011;4700;48.822;9.270;2023-05-07T08:29:42;72.93;;;69.83;;
9322;SDS011;4700;48.822;9.270;2023-05-07T08:32:31;89.70;;;85.37;;
9322;SDS011;4700;48.822;9.270;2023-05-07T08:35:18;84.50;;;80.97;;
9322;SDS011;4700;48.822;9.270;2023-05-07T08:38:04;108.70;;;103.97;;
9322;SDS011;4700;48.822;9.270;2023-05-07T08:40:49;135.13;;;129.37;;
9322;SDS011;4700;48.822;9.270;2023-05-07T08:43:35;159.63;;;152.60;;
9322;SDS011;4700;48.822;9.270;2023-05-07T08:46:22;186.40;;;177.70;;
9322;SDS011;4700;48.822;9.270;2023-05-07T08:49:09;166.07;;;158.33;;
9322;SDS011;4700;48.822;9.270;2023-05-07T08:51:56;194.70;;;185.60;;
9322;SDS011;4700;48.822;9.270;2023-05-07T08:54:43;205.30;;;195.40;;
9322;SDS011;4700;48.822;9.270;2023-05-07T08:57:29;189.80;;;180.90;;
9322;SDS011;4700;48.822;9.270;2023-05-07T09:00:15;198.40;;;188.73;;
9322;SDS011;4700;48.822;9.270;2023-05-07T09:03:01;189.23;;;180.20;;
9322;SDS011;4700;48.822;9.270;2023-05-07T09:05:47;190.27;;;180.37;;
9322;SDS011;4700;48.822;9.270;2023-05-07T09:08:34;148.67;;;142.20;;
9322;SDS011;4700;48.822;9.270;2023-05-07T09:11:21;169.63;;;161.77;;
9322;SDS011;4700;48.822;9.270;2023-05-07T09:14:07;160.43;;;153.20;;
9322;SDS011;4700;48.822;9.270;2023-05-07T09:16:56;141.17;;;135.07;;
9322;SDS011;4700;48.822;9.270;2023-05-07T09:19:42;150.37;;;143.93;;
9322;SDS011;4700;48.822;9.270;2023-05-07T09:22:31;158.57;;;151.83;;
9322;SDS011;4700;48.822;9.270;2023-05-07T09:25:18;146.97;;;140.67;;
9322;SDS011;4700;48.822;9.270;2023-05-07T09:28:13;147.50;;;140.77;;
9322;SDS011;4700;48.822;9.270;2023-05-07T09:31:02;146.87;;;140.03;;
9322;SDS011;4700;48.822;9.270;2023-05-07T09:33:48;145.23;;;138.93;;
9322;SDS011;4700;48.822;9.270;2023-05-07T09:36:34;137.73;;;131.27;;
9322;SDS011;4700;48.822;9.270;2023-05-07T09:39:20;128.93;;;122.47;;
9322;SDS011;4700;48.822;9.270;2023-05-07T09:42:08;115.40;;;109.90;;
9322;SDS011;4700;48.822;9.270;2023-05-07T09:44:53;110.97;;;105.97;;
9322;SDS011;4700;48.822;9.270;2023-05-07T09:47:39;109.43;;;104.10;;
9322;SDS011;4700;48.822;9.270;2023-05-07T09:50:28;98.20;;;93.87;;
9322;SDS011;4700;48.822;9.270;2023-05-07T09:53:17;102.20;;;96.83;;
9322;SDS011;4700;48.822;9.270;2023-05-07T09:56:04;106.57;;;101.40;;
9322;SDS011;4700;48.822;9.270;2023-05-07T09:58:52;99.73;;;95.37;;
9322;SDS011;4700;48.822;9.270;2023-05-07T10:01:41;93.07;;;89.03;;
9322;SDS011;4700;48.822;9.270;2023-05-07T10:04:28;91.90;;;87.63;;
9322;SDS011;4700;48.822;9.270;2023-05-07T10:07:15;69.40;;;66.33;;
9322;SDS011;4700;48.822;9.270;2023-05-07T10:10:02;73.67;;;70.47;;
9322;SDS011;4700;48.822;9.270;2023-05-07T10:12:49;71.83;;;68.57;;
9322;SDS011;4700;48.822;9.270;2023-05-07T10:15:37;84.93;;;81.13;;
9322;SDS011;4700;48.822;9.270;2023-05-07T10:18:23;76.93;;;73.10;;
9322;SDS011;4700;48.822;9.270;2023-05-07T10:21:15;70.77;;;66.67;;
9322;SDS011;4700;48.822;9.270;2023-05-07T10:24:03;77.43;;;73.53;;
9322;SDS011;4700;48.822;9.270;2023-05-07T10:26:57;78.60;;;74.57;;
9322;SDS011;4700;48.822;9.270;2023-05-07T10:29:49;50.60;;;48.03;;
9322;SDS011;4700;48.822;9.270;2023-05-07T10:32:45;57.50;;;54.80;;
9322;SDS011;4700;48.822;9.270;2023-05-07T10:35:36;70.37;;;66.27;;
9322;SDS011;4700;48.822;9.270;2023-05-07T10:38:25;69.37;;;66.23;;
9322;SDS011;4700;48.822;9.270;2023-05-07T10:41:12;72.27;;;67.60;;
9322;SDS011;4700;48.822;9.270;2023-05-07T10:44:00;70.97;;;66.97;;
9322;SDS011;4700;48.822;9.270;2023-05-07T10:46:53;59.63;;;56.90;;
9322;SDS011;4700;48.822;9.270;2023-05-07T10:53:20;86.90;;;82.43;;
9322;SDS011;4700;48.822;9.270;2023-05-07T10:56:25;76.20;;;72.83;;
9322;SDS011;4700;48.822;9.270;2023-05-07T10:59:33;61.27;;;58.57;;
9322;SDS011;4700;48.822;9.270;2023-05-07T11:05:50;67.93;;;64.83;;
9322;SDS011;4700;48.822;9.270;2023-05-07T11:08:55;47.87;;;45.70;;
9322;SDS011;4700;48.822;9.270;2023-05-07T11:11:44;39.93;;;37.77;;
9322;SDS011;4700;48.822;9.270;2023-05-07T11:14:43;38.03;;;36.23;;
9322;SDS011;4700;48.822;9.270;2023-05-07T11:17:34;44.20;;;41.07;;
9322;SDS011;4700;48.822;9.270;2023-05-07T11:24:00;72.33;;;68.37;;
9322;SDS011;4700;48.822;9.270;2023-05-07T11:26:47;53.40;;;51.17;;
9322;SDS011;4700;48.822;9.270;2023-05-07T11:29:34;37.37;;;35.67;;
9322;SDS011;4700;48.822;9.270;2023-05-07T11:32:22;35.27;;;33.00;;
9322;SDS011;4700;48.822;9.270;2023-05-07T11:35:08;30.53;;;28.90;;
9322;SDS011;4700;48.822;9.270;2023-05-07T11:37:57;29.40;;;27.70;;
9322;SDS011;4700;48.822;9.270;2023-05-07T11:40:50;38.43;;;36.47;;
9322;SDS011;4700;48.822;9.270;2023-05-07T11:43:36;46.77;;;44.03;;
9322;SDS011;4700;48.822;9.270;2023-05-07T11:46:23;41.47;;;38.77;;
9322;SDS011;4700;48.822;9.270;2023-05-07T11:49:09;32.20;;;30.50;;
9322;SDS011;4700;48.822;9.270;2023-05-07T11:51:55;27.17;;;25.60;;
9322;SDS011;4700;48.822;9.270;2023-05-07T11:54:43;24.80;;;23.50;;
9322;SDS011;4700;48.822;9.270;2023-05-07T11:57:34;34.90;;;33.23;;
9322;SDS011;4700;48.822;9.270;2023-05-07T12:00:19;29.67;;;28.10;;
9322;SDS011;4700;48.822;9.270;2023-05-07T12:03:05;32.20;;;30.73;;
9322;SDS011;4700;48.822;9.270;2023-05-07T12:05:51;35.40;;;33.37;;
9322;SDS011;4700;48.822;9.270;2023-05-07T12:08:37;37.90;;;36.00;;
9322;SDS011;4700;48.822;9.270;2023-05-07T12:11:25;38.17;;;36.60;;
9322;SDS011;4700;48.822;9.270;2023-05-07T12:14:11;46.40;;;44.17;;
9322;SDS011;4700;48.822;9.270;2023-05-07T12:16:56;44.07;;;41.57;;
9322;SDS011;4700;48.822;9.270;2023-05-07T12:19:45;46.60;;;43.20;;
9322;SDS011;4700;48.822;9.270;2023-05-07T12:22:31;43.80;;;41.07;;
9322;SDS011;4700;48.822;9.270;2023-05-07T12:25:18;48.13;;;45.50;;
9322;SDS011;4700;48.822;9.270;2023-05-07T12:28:07;55.90;;;53.23;;
9322;SDS011;4700;48.822;9.270;2023-05-07T12:30:53;62.57;;;59.40;;
9322;SDS011;4700;48.822;9.270;2023-05-07T12:33:38;71.03;;;67.63;;
9322;SDS011;4700;48.822;9.270;2023-05-07T12:36:25;70.33;;;66.43;;
9322;SDS011;4700;48.822;9.270;2023-05-07T12:39:10;70.57;;;67.40;;
9322;SDS011;4700;48.822;9.270;2023-05-07T12:41:58;77.30;;;73.40;;
9322;SDS011;4700;48.822;9.270;2023-05-07T12:44:46;95.00;;;90.33;;
9322;SDS011;4700;48.822;9.270;2023-05-07T12:47:32;90.87;;;86.57;;
9322;SDS011;4700;48.822;9.270;2023-05-07T12:50:18;74.50;;;70.83;;
9322;SDS011;4700;48.822;9.270;2023-05-07T12:53:04;79.50;;;75.50;;
9322;SDS011;4700;48.822;9.270;2023-05-07T12:55:52;75.50;;;71.47;;
9322;SDS011;4700;48.822;9.270;2023-05-07T12:58:39;61.77;;;58.57;;
9322;SDS011;4700;48.822;9.270;2023-05-07T13:01:30;74.27;;;70.70;;
9322;SDS011;4700;48.822;9.270;2023-05-07T13:04:16;60.87;;;58.10;;
9322;SDS011;4700;48.822;9.270;2023-05-07T13:07:02;67.90;;;64.37;;
9322;SDS011;4700;48.822;9.270;2023-05-07T13:09:48;69.73;;;66.13;;
9322;SDS011;4700;48.822;9.270;2023-05-07T13:12:36;71.90;;;68.50;;
9322;SDS011;4700;48.822;9.270;2023-05-07T13:15:22;78.67;;;74.97;;
9322;SDS011;4700;48.822;9.270;2023-05-07T13:18:09;76.77;;;73.30;;
9322;SDS011;4700;48.822;9.270;2023-05-07T13:20:55;66.33;;;62.80;;
9322;SDS011;4700;48.822;9.270;2023-05-07T13:23:41;55.90;;;53.27;;
9322;SDS011;4700;48.822;9.270;2023-05-07T13:26:27;68.47;;;64.90;;
9322;SDS011;4700;48.822;9.270;2023-05-07T13:29:12;55.53;;;52.93;;
9322;SDS011;4700;48.822;9.270;2023-05-07T13:31:58;49.73;;;46.97;;
9322;SDS011;4700;48.822;9.270;2023-05-07T13:34:45;41.13;;;39.07;;
9322;SDS011;4700;48.822;9.270;2023-05-07T13:37:31;30.23;;;28.60;;
9322;SDS011;4700;48.822;9.270;2023-05-07T13:40:16;26.50;;;25.37;;
9322;SDS011;4700;48.822;9.270;2023-05-07T13:43:02;25.67;;;24.40;;
9322;SDS011;4700;48.822;9.270;2023-05-07T13:45:50;25.83;;;24.40;;
9322;SDS011;4700;48.822;9.270;2023-05-07T13:48:36;28.63;;;27.47;;
9322;SDS011;4700;48.822;9.270;2023-05-07T13:51:23;33.27;;;31.33;;
9322;SDS011;4700;48.822;9.270;2023-05-07T13:54:09;32.47;;;31.07;;
9322;SDS011;4700;48.822;9.270;2023-05-07T13:56:55;40.67;;;38.70;;
9322;SDS011;4700;48.822;9.270;2023-05-07T13:59:41;34.63;;;33.17;;
9322;SDS011;4700;48.822;9.270;2023-05-07T14:02:27;33.37;;;32.07;;
9322;SDS011;4700;48.822;9.270;2023-05-07T14:05:12;37.27;;;35.60;;
9322;SDS011;4700;48.822;9.270;2023-05-07T14:08:00;36.53;;;35.00;;
9322;SDS011;4700;48.822;9.270;2023-05-07T14:10:47;36.23;;;34.70;;
9322;SDS011;4700;48.822;9.270;2023-05-07T14:13:34;48.03;;;45.67;;
9322;SDS011;4700;48.822;9.270;2023-05-07T14:16:20;50.83;;;48.17;;
9322;SDS011;4700;48.822;9.270;2023-05-07T14:19:06;40.83;;;39.17;;
9322;SDS011;4700;48.822;9.270;2023-05-07T14:21:52;39.63;;;37.63;;
9322;SDS011;4700;48.822;9.270;2023-05-07T14:24:39;38.57;;;36.80;;
9322;SDS011;4700;48.822;9.270;2023-05-07T14:27:25;41.37;;;39.47;;
9322;SDS011;4700;48.822;9.270;2023-05-07T14:30:11;42.67;;;40.17;;
9322;SDS011;4700;48.822;9.270;2023-05-07T14:32:57;40.17;;;38.33;;
9322;SDS011;4700;48.822;9.270;2023-05-07T14:35:43;39.57;;;37.87;;
9322;SDS011;4700;48.822;9.270;2023-05-07T14:38:23;32.57;;;30.87;;
9322;SDS011;4700;48.822;9.270;2023-05-07T14:41:10;34.03;;;32.70;;
9322;SDS011;4700;48.822;9.270;2023-05-07T14:43:56;38.60;;;36.83;;
9322;SDS011;4700;48.822;9.270;2023-05-07T14:46:42;38.83;;;37.30;;
9322;SDS011;4700;48.822;9.270;2023-05-07T14:49:28;36.27;;;34.27;;
9322;SDS011;4700;48.822;9.270;2023-05-07T14:52:15;40.93;;;39.10;;
9322;SDS011;4700;48.822;9.270;2023-05-07T14:55:00;36.70;;;35.13;;
9322;SDS011;4700;48.822;9.270;2023-05-07T14:57:48;40.50;;;38.60;;
9322;SDS011;4700;48.822;9.270;2023-05-07T15:00:33;40.23;;;38.47;;
9322;SDS011;4700;48.822;9.270;2023-05-07T15:03:19;49.57;;;47.50;;
9322;SDS011;4700;48.822;9.270;2023-05-07T15:06:06;59.03;;;56.47;;
9322;SDS011;4700;48.822;9.270;2023-05-07T15:08:51;64.33;;;61.27;;
9322;SDS011;4700;48.822;9.270;2023-05-07T15:11:37;75.23;;;71.27;;
9322;SDS011;4700;48.822;9.270;2023-05-07T15:14:25;100.30;;;95.60;;
9322;SDS011;4700;48.822;9.270;2023-05-07T15:17:11;95.30;;;90.60;;
9322;SDS011;4700;48.822;9.270;2023-05-07T15:19:58;106.40;;;101.43;;
9322;SDS011;4700;48.822;9.270;2023-05-07T15:22:44;109.00;;;103.73;;
9322;SDS011;4700;48.822;9.270;2023-05-07T15:25:30;100.77;;;96.17;;
9322;SDS011;4700;48.822;9.270;2023-05-07T15:28:17;107.13;;;101.93;;
9322;SDS011;4700;48.822;9.270;2023-05-07T15:31:04;109.77;;;104.37;;
9322;SDS011;4700;48.822;9.270;2023-05-07T15:33:50;110.20;;;105.07;;
9322;SDS011;4700;48.822;9.270;2023-05-07T15:36:36;105.67;;;100.57;;
9322;SDS011;4700;48.822;9.270;2023-05-07T15:39:22;117.50;;;111.73;;
9322;SDS011;4700;48.822;9.270;2023-05-07T15:42:08;120.40;;;114.73;;
9322;SDS011;4700;48.822;9.270;2023-05-07T15:44:53;122.00;;;115.73;;
9322;SDS011;4700;48.822;9.270;2023-05-07T15:47:41;130.60;;;124.27;;
9322;SDS011;4700;48.822;9.270;2023-05-07T15:50:27;129.20;;;122.57;;
9322;SDS011;4700;48.822;9.270;2023-05-07T15:53:13;125.90;;;119.83;;
9322;SDS011;4700;48.822;9.270;2023-05-07T15:56:01;153.30;;;145.37;;
9322;SDS011;4700;48.822;9.270;2023-05-07T15:58:50;156.20;;;148.10;;
9322;SDS011;4700;48.822;9.270;2023-05-07T16:01:36;147.50;;;139.97;;
9322;SDS011;4700;48.822;9.270;2023-05-07T16:04:25;121.47;;;115.60;;
9322;SDS011;4700;48.822;9.270;2023-05-07T16:07:11;119.27;;;113.43;;
9322;SDS011;4700;48.822;9.270;2023-05-07T16:09:57;129.43;;;122.87;;
9322;SDS011;4700;48.822;9.270;2023-05-07T16:12:43;137.77;;;130.67;;
9322;SDS011;4700;48.822;9.270;2023-05-07T16:15:28;136.20;;;129.57;;
9322;SDS011;4700;48.822;9.270;2023-05-07T16:18:14;130.87;;;124.27;;
9322;SDS011;4700;48.822;9.270;2023-05-07T16:21:02;153.90;;;145.87;;
9322;SDS011;4700;48.822;9.270;2023-05-07T16:23:48;154.03;;;145.73;;
9322;SDS011;4700;48.822;9.270;2023-05-07T16:26:34;151.93;;;144.37;;
9322;SDS011;4700;48.822;9.270;2023-05-07T16:29:20;118.23;;;112.27;;
9322;SDS011;4700;48.822;9.270;2023-05-07T16:32:06;145.70;;;138.13;;
9322;SDS011;4700;48.822;9.270;2023-05-07T16:34:52;144.17;;;136.60;;
9322;SDS011;4700;48.822;9.270;2023-05-07T16:37:40;164.23;;;155.67;;
9322;SDS011;4700;48.822;9.270;2023-05-07T16:40:25;153.47;;;145.33;;